Time;durP1;ratioP1;P1;durP2;ratioP2;P2;SDS_P1;SDS_P2;PMS_P1;PMS_P2;Temp;Humidity;BMP_temperature;BMP_pressure;BME280_temperature;BME280_humidity;BME280_pressure;Samples;Min_cycle;Max_cycle;Signal;HPM_P1;HPM_P2
2023/04/14 00:01:34;;;;;;;27.98;2.97;;;;;;;6.74;100.00;100717.25;5063610;28;20388;-48
2023/04/14 00:04:00;;;;;;;18.83;2.88;;;;;;;6.71;100.00;100721.09;5069144;28;20024;-47
2023/04/14 00:06:26;;;;;;;22.70;2.58;;;;;;;6.69;100.00;100715.09;5066816;28;20470;-48
2023/04/14 00:08:51;;;;;;;21.73;2.70;;;;;;;6.68;100.00;100713.41;5063860;28;20471;-47
2023/04/14 00:11:17;;;;;;;22.02;2.78;;;;;;;6.65;100.00;100711.03;5069181;28;20028;-49
2023/04/14 00:13:42;;;;;;;23.30;2.55;;;;;;;6.66;100.00;100720.75;5068129;28;20497;-48
2023/04/14 00:16:10;;;;;;;14.93;2.38;;;;;;;6.65;100.00;100711.03;5068391;28;20119;-50
2023/04/14 00:18:35;;;;;;;28.58;2.85;;;;;;;6.62;100.00;100724.75;5057906;28;20044;-49
2023/04/14 00:21:01;;;;;;;13.55;2.60;;;;;;;6.60;100.00;100722.22;5065930;28;20550;-48
2023/04/14 00:23:27;;;;;;;19.52;2.58;;;;;;;6.59;100.00;100727.75;5070048;28;20034;-49
2023/04/14 00:25:52;;;;;;;14.23;3.03;;;;;;;6.56;100.00;100726.22;5069661;28;20025;-48
2023/04/14 00:28:17;;;;;;;26.45;3.13;;;;;;;6.56;100.00;100730.72;5068962;28;20119;-49
2023/04/14 00:30:43;;;;;;;16.00;2.40;;;;;;;6.51;100.00;100723.19;5065687;28;20032;-48
2023/04/14 00:33:08;;;;;;;17.20;3.15;;;;;;;6.52;100.00;100734.69;5065639;28;20068;-48
2023/04/14 00:35:33;;;;;;;18.80;2.60;;;;;;;6.50;100.00;100732.22;5069170;28;20111;-46
2023/04/14 00:37:59;;;;;;;21.30;2.85;;;;;;;6.51;100.00;100733.03;5063425;28;20072;-49
2023/04/14 00:40:24;;;;;;;23.10;2.45;;;;;;;6.50;100.00;100726.00;5067020;28;20047;-49
2023/04/14 00:42:50;;;;;;;13.80;2.08;;;;;;;6.49;100.00;100732.34;5067844;28;20036;-48
2023/04/14 00:45:15;;;;;;;16.88;2.75;;;;;;;6.48;100.00;100733.34;5050292;28;20032;-47
2023/04/14 00:47:46;;;;;;;25.52;2.28;;;;;;;6.46;100.00;100732.69;5068853;28;20032;-48
2023/04/14 00:50:13;;;;;;;20.30;3.20;;;;;;;6.44;100.00;100737.34;5073037;28;20035;-47
2023/04/14 00:52:38;;;;;;;19.85;2.33;;;;;;;6.45;100.00;100741.66;5067851;28;20028;-48
2023/04/14 00:55:05;;;;;;;18.88;2.50;;;;;;;6.44;100.00;100737.34;5072076;28;20512;-48
2023/04/14 00:57:31;;;;;;;19.88;3.15;;;;;;;6.42;100.00;100739.31;5060151;28;20052;-49
2023/04/14 00:59:57;;;;;;;34.65;2.92;;;;;;;6.41;100.00;100743.84;5056833;28;20059;-47
2023/04/14 01:02:24;;;;;;;18.73;2.38;;;;;;;6.40;100.00;100746.66;5071799;28;20081;-48
2023/04/14 01:04:50;;;;;;;19.58;2.30;;;;;;;6.37;100.00;100746.00;5064942;28;20463;-47
2023/04/14 01:07:16;;;;;;;18.13;2.53;;;;;;;6.35;100.00;100747.97;5059065;28;20033;-48
2023/04/14 01:09:41;;;;;;;26.70;3.13;;;;;;;6.34;100.00;100759.66;5054229;28;20055;-49
2023/04/14 01:12:30;;;;;;;25.67;3.28;;;;;;;6.31;100.00;100762.63;5055560;28;20033;-47
2023/04/14 01:15:28;;;;;;;13.00;2.28;;;;;;;6.29;100.00;100771.81;5067602;28;20035;-50
2023/04/14 01:17:58;;;;;;;13.70;2.30;;;;;;;6.29;100.00;100766.47;5061538;28;20031;-48
2023/04/14 01:20:58;;;;;;;14.88;2.55;;;;;;;6.25;100.00;100763.25;5072642;28;20037;-48
2023/04/14 01:23:33;;;;;;;22.98;3.08;;;;;;;6.23;100.00;100767.91;5069347;28;20028;-48
2023/04/14 01:26:18;;;;;;;32.35;3.58;;;;;;;6.23;100.00;100765.25;5070052;28;20029;-50
2023/04/14 01:29:05;;;;;;;18.77;2.60;;;;;;;6.19;100.00;100758.56;5062945;28;20109;-49
2023/04/14 01:31:39;;;;;;;15.70;2.40;;;;;;;6.18;100.00;100764.88;5071188;28;20515;-47
2023/04/14 01:34:34;;;;;;;14.77;2.63;;;;;;;6.17;100.00;100760.53;5058818;28;20521;-50
2023/04/14 01:37:08;;;;;;;21.45;2.75;;;;;;;6.11;100.00;100755.81;5069924;28;20545;-49
2023/04/14 01:39:51;;;;;;;23.20;2.78;;;;;;;6.09;100.00;100755.13;5057860;28;20021;-47
2023/04/14 01:42:19;;;;;;;21.52;2.60;;;;;;;6.06;100.00;100756.28;5053080;28;20072;-49
2023/04/14 01:44:47;;;;;;;22.15;2.28;;;;;;;6.03;100.00;100761.06;5062471;28;20035;-49
2023/04/14 01:47:14;;;;;;;37.72;2.97;;;;;;;6.00;100.00;100761.38;5071412;28;20139;-48
2023/04/14 01:49:40;;;;;;;25.88;3.42;;;;;;;5.98;100.00;100763.38;5058408;28;20024;-49
2023/04/14 01:52:08;;;;;;;33.47;3.28;;;;;;;5.94;100.00;100761.00;5051475;28;20039;-51
2023/04/14 01:54:35;;;;;;;39.67;3.25;;;;;;;5.93;100.00;100762.00;5070728;28;20400;-50
2023/04/14 01:57:02;;;;;;;25.48;2.28;;;;;;;5.92;100.00;100760.31;5052360;28;20036;-47
2023/04/14 01:59:28;;;;;;;26.30;2.50;;;;;;;5.91;100.00;100765.78;5061396;28;20036;-48
2023/04/14 02:01:54;;;;;;;19.02;2.83;;;;;;;5.89;100.00;100767.78;5060017;28;20062;-48
2023/04/14 02:04:22;;;;;;;30.13;3.03;;;;;;;5.88;100.00;100774.13;5068618;28;20511;-48
2023/04/14 02:06:48;;;;;;;25.25;3.22;;;;;;;5.88;100.00;100768.78;5072023;28;20110;-47
2023/04/14 02:09:14;;;;;;;27.60;2.90;;;;;;;5.88;100.00;100769.63;5065263;28;20073;-48
2023/04/14 02:11:41;;;;;;;32.72;2.35;;;;;;;5.91;100.00;100766.63;5068045;28;20551;-49
2023/04/14 02:14:08;;;;;;;19.67;2.42;;;;;;;5.91;100.00;100771.13;5051314;28;20083;-47
2023/04/14 02:16:34;;;;;;;22.38;2.63;;;;;;;5.91;100.00;100769.31;5071149;28;20028;-46
2023/04/14 02:19:01;;;;;;;30.33;3.03;;;;;;;5.93;100.00;100772.69;5068697;28;20056;-47
2023/04/14 02:21:27;;;;;;;25.10;3.47;;;;;;;5.91;100.00;100769.31;5071055;28;20294;-48
2023/04/14 02:23:52;;;;;;;29.25;3.03;;;;;;;5.91;100.00;100771.97;5071481;28;20032;-48
2023/04/14 02:26:21;;;;;;;25.90;3.70;;;;;;;5.89;100.00;100773.94;5070386;28;20033;-49
2023/04/14 02:28:50;;;;;;;;;;;;;;;5.91;100.00;100784.50;5071210;28;20028;-49
2023/04/14 02:31:22;;;;;;;22.08;2.65;;;;;;;5.93;100.00;100778.03;5072176;28;19908;-49
2023/04/14 02:33:51;;;;;;;21.55;3.08;;;;;;;5.91;100.00;100771.97;5071892;28;20060;-47
2023/04/14 02:36:19;;;;;;;25.17;3.65;;;;;;;5.90;100.00;100780.16;5069970;28;20036;-48
2023/04/14 02:38:47;;;;;;;32.75;3.80;;;;;;;5.88;100.00;100780.28;5070006;28;20032;-48
2023/04/14 02:41:20;;;;;;;20.73;3.28;;;;;;;5.87;100.00;100783.97;5067817;28;20035;-50
2023/04/14 02:44:03;;;;;;;27.77;3.97;;;;;;;5.86;100.00;100776.94;5069173;28;20040;-51
2023/04/14 02:46:32;;;;;;;23.63;3.25;;;;;;;5.87;100.00;100783.97;5056884;28;20067;-51
2023/04/14 02:49:00;;;;;;;16.25;3.28;;;;;;;5.85;100.00;100777.94;5055929;28;20082;-49
2023/04/14 02:51:26;;;;;;;;;;;;;;;5.84;100.00;100776.25;5070340;28;20071;-49
2023/04/14 02:53:51;;;;;;;27.90;3.10;;;;;;;5.83;100.00;100777.25;5069138;28;19967;-49
2023/04/14 02:56:17;;;;;;;24.35;4.57;;;;;;;5.81;100.00;100776.56;5064942;28;20049;-48
2023/04/14 02:58:43;;;;;;;23.20;2.95;;;;;;;5.83;100.00;100776.41;5066163;28;20033;-48
2023/04/14 03:01:08;;;;;;;24.00;3.17;;;;;;;5.84;100.00;100781.59;5051825;28;20020;-48
2023/04/14 03:03:36;;;;;;;31.63;4.88;;;;;;;5.87;100.00;100777.78;5059639;28;20036;-47
2023/04/14 03:06:04;;;;;;;32.03;4.22;;;;;;;5.85;100.00;100780.59;5062006;28;20052;-48
2023/04/14 03:08:29;;;;;;;;;;;;;;;5.84;100.00;100775.41;5062406;28;20032;-50
2023/04/14 03:10:55;;;;;;;43.00;4.28;;;;;;;5.80;100.00;100777.56;5057967;28;19923;-50
2023/04/14 03:13:22;;;;;;;37.60;4.50;;;;;;;5.77;100.00;100772.53;5063783;28;20033;-49
2023/04/14 03:15:49;;;;;;;30.08;3.38;;;;;;;5.72;100.00;100775.66;5068111;28;20031;-49
2023/04/14 03:18:15;;;;;;;45.72;4.63;;;;;;;5.72;100.00;100780.16;5059766;28;20021;-48
2023/04/14 03:20:42;;;;;;;24.85;3.65;;;;;;;5.71;100.00;100778.44;5059474;28;20067;-48
2023/04/14 03:23:10;;;;;;;30.83;4.28;;;;;;;5.68;100.00;100782.25;5066909;28;20032;-49
2023/04/14 03:25:36;;;;;;;21.58;4.78;;;;;;;5.70;100.00;100788.28;5060230;28;20397;-48
2023/04/14 03:28:04;;;;;;;32.28;4.13;;;;;;;5.70;100.00;100784.78;5070176;28;20457;-47
2023/04/14 03:30:30;;;;;;;29.33;4.63;;;;;;;5.72;100.00;100783.66;5063335;28;20034;-48
2023/04/14 03:33:03;;;;;;;32.47;4.20;;;;;;;5.73;100.00;100787.16;5065017;28;20033;-48
2023/04/14 03:35:29;;;;;;;22.33;4.05;;;;;;;5.74;100.00;100794.19;5066672;28;20032;-46
2023/04/14 03:37:58;;;;;;;28.23;4.35;;;;;;;5.77;100.00;100791.22;5057226;28;20020;-49
2023/04/14 03:40:29;;;;;;;28.15;4.10;;;;;;;5.74;100.00;100794.19;5064693;28;20070;-50
2023/04/14 03:42:57;;;;;;;34.50;4.93;;;;;;;5.71;100.00;100790.00;5066807;28;20499;-48
2023/04/14 03:45:23;;;;;;;28.13;5.80;;;;;;;5.71;100.00;100794.47;5063686;28;20033;-48
2023/04/14 03:47:49;;;;;;;32.28;5.95;;;;;;;5.69;100.00;100796.47;5061216;28;20025;-47
2023/04/14 03:50:15;;;;;;;30.02;6.60;;;;;;;5.66;100.00;100791.41;5055490;28;20079;-49
2023/04/14 03:52:42;;;;;;;35.97;8.80;;;;;;;5.64;100.00;100799.59;5061674;28;20047;-49
2023/04/14 03:55:11;;;;;;;44.37;8.10;;;;;;;5.61;100.00;100793.69;5055842;28;20427;-47
2023/04/14 03:57:38;;;;;;;48.28;8.07;;;;;;;5.64;100.00;100793.41;5068802;28;20120;-46
2023/04/14 04:00:04;;;;;;;41.40;9.43;;;;;;;5.62;100.00;100798.06;5065141;28;20055;-49
2023/04/14 04:02:32;;;;;;;46.45;10.13;;;;;;;5.59;100.00;100796.53;5069429;28;20024;-49
2023/04/14 04:04:57;;;;;;;49.73;9.30;;;;;;;5.58;100.00;100800.22;5069498;28;20029;-46
2023/04/14 04:07:24;;;;;;;35.00;8.27;;;;;;;5.55;100.00;100802.31;5050073;28;20025;-47
2023/04/14 04:09:50;;;;;;;42.10;8.82;;;;;;;5.48;100.00;100802.94;5050154;28;20059;-48
2023/04/14 04:12:19;;;;;;;43.00;8.30;;;;;;;5.46;100.00;100798.72;5049286;28;20029;-48
2023/04/14 04:14:45;;;;;;;42.60;8.35;;;;;;;5.42;100.00;100795.50;5048538;28;20021;-48
2023/04/14 04:17:12;;;;;;;38.67;8.30;;;;;;;5.40;100.00;100794.84;5051768;28;20209;-48
2023/04/14 04:19:39;;;;;;;38.30;7.38;;;;;;;5.36;100.00;100798.78;5065280;28;20037;-47
2023/04/14 04:22:05;;;;;;;38.25;7.63;;;;;;;5.35;100.00;100799.78;5050159;28;20523;-47
2023/04/14 04:24:35;;;;;;;32.63;7.22;;;;;;;5.31;100.00;100806.38;5066093;28;20024;-48
2023/04/14 04:27:00;;;;;;;34.30;7.50;;;;;;;5.27;100.00;100802.34;5053455;28;20036;-48
2023/04/14 04:29:26;;;;;;;46.75;6.88;;;;;;;5.23;100.00;100807.13;5059121;28;20397;-48
2023/04/14 04:31:51;;;;;;;31.35;6.30;;;;;;;5.24;100.00;100813.31;5058101;28;20111;-49
2023/04/14 04:34:17;;;;;;;39.35;6.05;;;;;;;5.21;100.00;100808.25;5063901;28;20067;-50
2023/04/14 04:36:43;;;;;;;31.52;6.65;;;;;;;5.20;100.00;100806.59;5066743;28;20086;-48
2023/04/14 04:39:08;;;;;;;40.63;6.53;;;;;;;5.19;100.00;100812.94;5053311;28;20090;-49
2023/04/14 04:41:34;;;;;;;39.78;6.95;;;;;;;5.14;100.00;100812.53;5051838;28;20025;-48
2023/04/14 04:44:00;;;;;;;42.40;6.75;;;;;;;5.07;100.00;100809.59;5066621;28;20060;-48
2023/04/14 04:46:36;;;;;;;25.63;6.60;;;;;;;5.04;100.00;100818.72;5067303;28;20048;-48
2023/04/14 04:49:02;;;;;;;39.92;6.85;;;;;;;5.00;100.00;100820.03;5064972;28;20039;-48
2023/04/14 04:51:27;;;;;;;38.72;7.75;;;;;;;5.02;100.00;100820.69;5058928;28;20032;-47
2023/04/14 04:53:53;;;;;;;40.28;8.80;;;;;;;4.99;100.00;100818.31;5060730;28;20069;-49
2023/04/14 04:56:18;;;;;;;57.50;9.48;;;;;;;4.94;100.00;100817.91;5059140;28;20064;-49
2023/04/14 04:58:44;;;;;;;43.70;8.52;;;;;;;4.96;100.00;100815.97;5067922;28;20096;-48
2023/04/14 05:01:10;;;;;;;44.97;8.75;;;;;;;5.00;100.00;100816.50;5064583;28;20056;-49
2023/04/14 05:03:35;;;;;;;54.90;9.68;;;;;;;4.96;100.00;100817.78;5065410;28;20130;-49
2023/04/14 05:06:01;;;;;;;58.42;9.85;;;;;;;4.93;100.00;100818.09;5054765;28;20949;-49
2023/04/14 05:08:26;;;;;;;45.05;9.82;;;;;;;4.92;100.00;100813.72;5057666;28;20060;-48
2023/04/14 05:10:52;;;;;;;47.13;11.05;;;;;;;4.90;100.00;100813.88;5068139;28;20502;-47
2023/04/14 05:13:17;;;;;;;54.67;11.52;;;;;;;4.90;100.00;100821.88;5068618;28;20430;-49
2023/04/14 05:15:42;;;;;;;45.47;10.93;;;;;;;4.94;100.00;100823.25;5061209;28;20104;-50
2023/04/14 05:18:08;;;;;;;49.47;9.98;;;;;;;4.99;100.00;100825.50;5057684;28;20051;-47
2023/04/14 05:20:33;;;;;;;47.95;9.95;;;;;;;5.06;100.00;100832.75;5065906;28;20040;-49
2023/04/14 05:22:59;;;;;;;56.50;10.20;;;;;;;5.02;100.00;100836.69;5069121;28;20107;-49
2023/04/14 05:25:25;;;;;;;58.28;11.68;;;;;;;5.10;100.00;100835.13;5068421;28;20024;-48
2023/04/14 05:27:50;;;;;;;56.25;11.30;;;;;;;5.06;100.00;100835.44;5068286;28;20115;-47
2023/04/14 05:30:15;;;;;;;53.80;11.75;;;;;;;5.21;100.00;100830.47;5069816;28;20060;-47
2023/04/14 05:32:41;;;;;;;42.38;11.25;;;;;;;5.43;100.00;100834.56;5070662;28;20048;-47
2023/04/14 05:35:07;;;;;;;58.38;11.57;;;;;;;5.78;100.00;100843.63;5068862;28;20459;-47
2023/04/14 05:37:32;;;;;;;57.92;11.68;;;;;;;6.11;100.00;100849.34;5071454;28;20020;-48
2023/04/14 05:39:58;;;;;;;51.63;11.25;;;;;;;6.57;100.00;100844.69;5057079;28;20029;-48
2023/04/14 05:42:23;;;;;;;46.78;10.15;;;;;;;6.81;100.00;100842.19;5057682;28;20032;-48
2023/04/14 05:44:48;;;;;;;51.17;10.02;;;;;;;7.08;100.00;100826.94;5070534;28;20043;-47
2023/04/14 05:47:14;;;;;;;49.38;10.82;;;;;;;7.61;100.00;100819.63;5053095;28;20044;-51
2023/04/14 05:49:39;;;;;;;57.50;10.90;;;;;;;8.24;100.00;100812.84;5064853;28;20447;-47
2023/04/14 05:52:05;;;;;;;58.03;12.02;;;;;;;8.97;100.00;100804.75;5053657;28;20121;-49
2023/04/14 05:54:30;;;;;;;60.17;11.38;;;;;;;9.24;100.00;100810.69;5059371;28;20112;-50
2023/04/14 05:56:56;;;;;;;40.45;9.88;;;;;;;10.25;100.00;100812.44;5057687;28;20021;-49
2023/04/14 05:59:22;;;;;;;49.53;10.27;;;;;;;10.40;100.00;100800.91;5048722;28;20064;-49
2023/04/14 06:01:47;;;;;;;61.28;16.70;;;;;;;11.20;100.00;100803.78;5063574;28;20017;-49
2023/04/14 06:04:12;;;;;;;58.45;11.73;;;;;;;11.02;100.00;100794.41;5065227;28;20063;-49
2023/04/14 06:06:38;;;;;;;62.53;10.48;;;;;;;11.45;100.00;100795.38;5056272;28;20021;-51
2023/04/14 06:09:03;;;;;;;43.60;11.45;;;;;;;10.79;100.00;100807.94;5064375;28;20051;-49
2023/04/14 06:11:28;;;;;;;53.47;10.57;;;;;;;10.43;100.00;100806.78;5065974;28;20036;-49
2023/04/14 06:13:54;;;;;;;58.88;11.85;;;;;;;10.87;100.00;100797.91;5051930;28;20039;-52
2023/04/14 06:16:19;;;;;;;50.17;11.05;;;;;;;10.55;100.00;100804.47;5060172;28;20109;-49
2023/04/14 06:18:44;;;;;;;55.15;11.10;;;;;;;10.66;100.00;100801.31;5071234;28;20074;-47
2023/04/14 06:21:10;;;;;;;55.83;11.90;;;;;;;10.37;100.00;100802.09;5068992;28;20036;-47
2023/04/14 06:23:36;;;;;;;50.33;10.45;;;;;;;9.87;100.00;100800.78;5072175;28;20140;-48
2023/04/14 06:26:01;;;;;;;51.83;10.68;;;;;;;9.60;100.00;100805.66;5069265;28;20099;-50
2023/04/14 06:28:26;;;;;;;55.13;10.63;;;;;;;9.31;100.00;100798.25;5071348;28;20120;-51
2023/04/14 06:30:52;;;;;;;49.75;11.30;;;;;;;8.33;100.00;100795.78;5066867;28;20036;-49
2023/04/14 06:33:17;;;;;;;56.15;11.38;;;;;;;7.88;100.00;100797.09;5052070;28;20033;-49
2023/04/14 06:35:43;;;;;;;53.55;10.93;;;;;;;7.48;100.00;100802.22;5059240;28;20028;-50
2023/04/14 06:38:09;;;;;;;63.30;12.25;;;;;;;7.46;100.00;100798.84;5064323;28;20025;-50
2023/04/14 06:40:34;;;;;;;53.47;10.95;;;;;;;7.63;100.00;100797.03;5062218;28;20484;-50
2023/04/14 06:43:00;;;;;;;52.45;12.00;;;;;;;7.94;100.00;100793.75;5062890;28;20051;-50
2023/04/14 06:45:25;;;;;;;61.17;12.85;;;;;;;8.77;100.00;100792.75;5060519;28;20364;-50
2023/04/14 06:47:51;;;;;;;46.95;11.45;;;;;;;8.99;100.00;100786.63;5061910;28;20036;-49
2023/04/14 06:50:16;;;;;;;48.58;11.10;;;;;;;10.39;100.00;100793.88;5061799;28;20409;-51
2023/04/14 06:52:41;;;;;;;50.30;11.30;;;;;;;10.53;100.00;100784.97;5060281;28;20029;-49
2023/04/14 06:55:07;;;;;;;48.00;10.90;;;;;;;11.19;100.00;100783.25;5065485;28;20059;-50
2023/04/14 06:57:33;;;;;;;54.78;11.63;;;;;;;12.14;100.00;100785.97;5065595;28;20036;-49
2023/04/14 06:59:58;;;;;;;46.97;11.88;;;;;;;12.24;100.00;100791.88;5061593;28;20029;-49
2023/04/14 07:02:23;;;;;;;49.97;10.60;;;;;;;11.60;100.00;100785.38;5062467;28;20066;-47
2023/04/14 07:04:49;;;;;;;50.50;12.32;;;;;;;11.73;100.00;100791.97;5061552;28;20029;-50
2023/04/14 07:07:14;;;;;;;46.53;11.07;;;;;;;12.26;100.00;100789.81;5061766;28;20108;-47
2023/04/14 07:09:42;;;;;;;43.50;10.95;;;;;;;13.33;100.00;100784.09;5064295;28;20099;-49
2023/04/14 07:12:12;;;;;;;35.70;9.80;;;;;;;13.47;95.89;100789.56;5061187;28;20146;-50
2023/04/14 07:14:39;;;;;;;40.15;10.73;;;;;;;13.37;95.63;100789.94;5063651;28;20017;-48
2023/04/14 07:17:05;;;;;;;43.38;10.73;;;;;;;13.44;95.50;100779.16;5062368;28;20330;-49
2023/04/14 07:19:31;;;;;;;35.70;9.30;;;;;;;14.52;92.78;100793.50;5064828;28;20077;-49
2023/04/14 07:21:56;;;;;;;32.55;9.35;;;;;;;13.94;90.88;100787.84;5065447;28;20079;-49
2023/04/14 07:24:22;;;;;;;34.17;8.38;;;;;;;14.23;89.42;100792.03;5064459;28;20071;-50
2023/04/14 07:26:47;;;;;;;30.05;8.10;;;;;;;13.94;89.58;100787.84;5061366;28;20032;-49
2023/04/14 07:29:12;;;;;;;34.60;8.63;;;;;;;13.25;91.43;100781.56;5060989;28;20020;-48
2023/04/14 07:31:38;;;;;;;32.05;7.88;;;;;;;13.70;90.38;100783.81;5065618;28;20029;-50
2023/04/14 07:34:04;;;;;;;32.90;7.90;;;;;;;14.27;90.34;100780.59;5062241;28;20064;-48
2023/04/14 07:36:31;;;;;;;25.33;7.15;;;;;;;13.39;89.27;100764.38;5068931;28;20029;-47
2023/04/14 07:38:56;;;;;;;24.30;7.40;;;;;;;13.25;92.97;100769.91;5066574;28;20470;-49
2023/04/14 07:41:23;;;;;;;36.35;8.18;;;;;;;13.08;94.48;100774.81;5061317;28;20021;-49
2023/04/14 07:43:48;;;;;;;21.92;7.00;;;;;;;13.07;94.72;100773.97;5064838;28;20024;-47
2023/04/14 07:46:14;;;;;;;29.52;7.45;;;;;;;13.69;92.74;100774.88;5062446;28;20040;-48
2023/04/14 07:48:39;;;;;;;29.00;7.57;;;;;;;13.45;90.79;100768.13;5062895;28;20036;-49
2023/04/14 07:51:05;;;;;;;26.15;6.78;;;;;;;13.87;88.59;100768.03;5061901;28;20460;-47
2023/04/14 07:53:31;;;;;;;22.73;5.40;;;;;;;14.14;88.90;100768.91;5059106;28;20097;-49
2023/04/14 07:55:58;;;;;;;32.58;7.45;;;;;;;15.51;85.16;100765.31;5061959;28;20071;-50
2023/04/14 07:58:23;;;;;;;20.98;5.00;;;;;;;14.17;83.97;100769.34;5064609;28;20071;-49
2023/04/14 08:00:48;;;;;;;22.67;5.50;;;;;;;13.73;88.28;100767.19;5062392;28;20045;-47
2023/04/14 08:03:14;;;;;;;23.45;6.28;;;;;;;13.41;88.82;100764.19;5059622;28;20331;-46
2023/04/14 08:05:40;;;;;;;18.67;5.20;;;;;;;14.52;85.56;100761.00;5062785;28;20036;-49
2023/04/14 08:08:06;;;;;;;22.05;4.93;;;;;;;14.16;84.50;100767.66;5064399;28;20361;-48
2023/04/14 08:10:32;;;;;;;23.90;4.43;;;;;;;14.20;86.33;100763.50;5064778;28;20036;-49
2023/04/14 08:12:57;;;;;;;17.73;4.10;;;;;;;14.52;82.41;100769.13;5060406;28;20029;-47
2023/04/14 08:15:22;;;;;;;18.05;4.40;;;;;;;14.71;80.98;100770.97;5062003;28;20045;-44
2023/04/14 08:17:48;;;;;;;19.90;4.00;;;;;;;14.69;81.88;100762.25;5062930;28;20055;-44
2023/04/14 08:20:13;;;;;;;16.48;4.45;;;;;;;14.86;80.27;100764.50;5062381;28;20453;-44
2023/04/14 08:22:38;;;;;;;19.42;3.85;;;;;;;14.27;80.44;100763.50;5060398;28;20984;-45
2023/04/14 08:25:04;;;;;;;19.50;4.43;;;;;;;15.06;81.80;100759.88;5061003;28;20028;-45
2023/04/14 08:27:30;;;;;;;15.82;4.05;;;;;;;16.09;76.83;100763.50;5063772;28;20327;-44
2023/04/14 08:29:56;;;;;;;22.27;3.80;;;;;;;15.91;74.69;100762.41;5060747;28;20389;-47
2023/04/14 08:32:21;;;;;;;13.95;3.00;;;;;;;14.75;76.07;100765.16;5061493;28;20028;-43
2023/04/14 08:34:47;;;;;;;11.73;3.08;;;;;;;15.74;76.05;100753.09;5061001;28;20098;-46
2023/04/14 08:37:12;;;;;;;11.05;2.70;;;;;;;14.86;75.62;100761.81;5061727;28;20016;-45
2023/04/14 08:39:37;;;;;;;12.07;2.40;;;;;;;14.27;78.19;100761.63;5060910;28;20116;-44
2023/04/14 08:42:03;;;;;;;8.73;2.75;;;;;;;14.11;78.72;100764.72;5059847;28;20029;-43
2023/04/14 08:44:29;;;;;;;12.73;2.25;;;;;;;15.52;76.48;100755.28;5058672;28;20033;-45
2023/04/14 08:46:55;;;;;;;7.35;2.03;;;;;;;15.53;74.00;100751.53;5060489;28;20244;-45
2023/04/14 08:49:34;;;;;;;10.20;2.20;;;;;;;16.18;70.76;100743.19;5061654;28;20052;-45
2023/04/14 08:52:01;;;;;;;12.45;2.50;;;;;;;17.33;70.08;100757.09;5061568;28;20730;-45
2023/04/14 08:54:27;;;;;;;10.35;1.80;;;;;;;16.52;65.12;100760.88;5060233;28;20355;-43
2023/04/14 08:56:56;;;;;;;8.90;2.00;;;;;;;16.18;65.98;100754.06;5059720;28;20024;-45
2023/04/14 08:59:21;;;;;;;7.43;1.92;;;;;;;15.17;68.93;100749.41;5062117;28;20025;-44
2023/04/14 09:01:47;;;;;;;11.25;2.13;;;;;;;15.33;71.27;100751.63;5047118;28;20021;-44
2023/04/14 09:04:13;;;;;;;9.13;1.52;;;;;;;15.54;73.05;100748.59;5047499;28;20386;-45
2023/04/14 09:06:38;;;;;;;7.75;1.70;;;;;;;15.93;68.32;100752.16;5048805;28;20025;-43
2023/04/14 09:09:08;;;;;;;9.75;2.00;;;;;;;15.23;69.29;100749.38;5050634;28;20036;-44
2023/04/14 09:11:33;;;;;;;11.40;1.98;;;;;;;15.90;69.58;100740.91;5052254;28;20025;-46
2023/04/14 09:14:00;;;;;;;4.88;1.73;;;;;;;16.39;68.15;100744.69;5053510;28;20028;-43
2023/04/14 09:16:26;;;;;;;6.65;1.52;;;;;;;17.08;66.85;100754.44;5052875;28;20391;-43
2023/04/14 09:18:52;;;;;;;8.55;1.60;;;;;;;16.61;65.37;100739.66;5053007;28;20047;-48
2023/04/14 09:21:18;;;;;;;7.50;1.67;;;;;;;15.48;66.41;100744.06;5051394;28;20536;-45
2023/04/14 09:23:43;;;;;;;8.80;2.15;;;;;;;16.48;66.36;100748.78;5051940;28;20108;-46
2023/04/14 09:26:09;;;;;;;6.00;1.65;;;;;;;15.63;68.13;100751.88;5052656;28;20021;-44
2023/04/14 09:28:35;;;;;;;9.95;1.92;;;;;;;15.35;70.10;100744.13;5051671;28;20029;-45
2023/04/14 09:31:01;;;;;;;9.07;1.88;;;;;;;16.89;64.42;100759.06;5052463;28;20393;-47
2023/04/14 09:33:27;;;;;;;7.72;1.75;;;;;;;16.46;65.82;100756.34;5052148;28;20025;-44
2023/04/14 09:35:53;;;;;;;9.65;1.65;;;;;;;16.68;62.58;100751.31;5051573;28;20362;-45
2023/04/14 09:38:35;;;;;;;6.88;1.48;;;;;;;15.61;66.36;100737.69;5053288;28;20025;-45
2023/04/14 09:41:01;;;;;;;6.03;1.90;;;;;;;15.73;66.95;100730.56;5051545;28;20444;-44
2023/04/14 09:43:28;;;;;;;9.95;1.80;;;;;;;15.71;67.09;100737.28;5052961;28;20084;-44
2023/04/14 09:45:54;;;;;;;8.30;1.70;;;;;;;16.57;64.73;100741.19;5052556;28;20025;-43
2023/04/14 09:48:20;;;;;;;6.53;1.65;;;;;;;16.68;62.45;100741.25;5052860;28;20028;-43
2023/04/14 09:50:57;;;;;;;6.35;1.35;;;;;;;15.00;65.39;100720.06;5052442;28;20486;-45
2023/04/14 09:53:31;;;;;;;7.10;1.75;;;;;;;15.25;67.42;100730.19;5052506;28;20521;-45
2023/04/14 09:56:01;;;;;;;4.57;1.40;;;;;;;15.87;66.91;100720.44;5051877;28;20553;-45
2023/04/14 09:58:37;;;;;;;9.43;2.15;;;;;;;15.86;66.51;100728.84;5052617;28;20121;-43
2023/04/14 10:01:04;;;;;;;7.32;1.73;;;;;;;15.72;65.15;100718.06;5052666;28;20049;-44
2023/04/14 10:03:37;;;;;;;7.60;1.63;;;;;;;15.79;63.88;100718.00;5052614;28;20021;-45
2023/04/14 10:06:16;;;;;;;7.43;1.55;;;;;;;15.35;64.74;100719.72;5052443;28;20028;-45
2023/04/14 10:08:50;;;;;;;4.43;1.13;;;;;;;14.96;64.80;100724.25;5052611;28;20029;-45
2023/04/14 10:11:28;;;;;;;8.93;1.70;;;;;;;15.00;65.04;100719.22;5052151;28;20021;-47
2023/04/14 10:13:53;;;;;;;9.15;1.80;;;;;;;14.87;65.44;100722.81;5052166;28;20103;-45
2023/04/14 10:16:19;;;;;;;6.78;1.98;;;;;;;15.38;65.08;100716.56;5052046;28;20111;-44
2023/04/14 10:18:45;;;;;;;10.05;2.63;;;;;;;15.62;64.14;100711.44;5051987;28;20017;-44
2023/04/14 10:21:11;;;;;;;5.63;2.17;;;;;;;15.23;65.41;100718.72;5052315;28;20050;-44
2023/04/14 10:23:38;;;;;;;8.00;2.35;;;;;;;13.99;68.53;100725.81;5051745;28;20075;-43
2023/04/14 10:26:05;;;;;;;7.80;2.40;;;;;;;14.58;68.83;100727.66;5052474;28;20133;-44
2023/04/14 10:28:31;;;;;;;11.38;2.30;;;;;;;15.37;67.10;100720.31;5052699;28;20237;-46
2023/04/14 10:30:56;;;;;;;9.75;2.17;;;;;;;15.50;66.22;100724.84;5052302;28;20412;-48
2023/04/14 10:33:22;;;;;;;6.97;2.67;;;;;;;15.06;67.67;100704.81;5050635;28;20033;-44
2023/04/14 10:35:52;;;;;;;25.35;2.80;;;;;;;15.31;67.21;100713.06;5051026;28;20029;-43
2023/04/14 10:38:17;;;;;;;10.27;2.60;;;;;;;16.11;66.00;100710.66;5050706;28;20032;-45
2023/04/14 10:40:47;;;;;;;5.75;2.45;;;;;;;17.01;63.92;100721.09;5051974;28;20044;-44
2023/04/14 10:43:12;;;;;;;8.18;2.58;;;;;;;16.52;64.22;100719.28;5051090;28;20037;-43
2023/04/14 10:45:54;;;;;;;13.05;3.05;;;;;;;15.68;65.74;100697.81;5052198;28;20025;-46
2023/04/14 10:48:23;;;;;;;11.23;2.28;;;;;;;15.80;68.01;100703.41;5051703;28;20155;-45
2023/04/14 10:50:48;;;;;;;9.27;2.15;;;;;;;15.71;65.31;100702.81;5050676;28;20025;-44
2023/04/14 10:53:14;;;;;;;10.98;2.45;;;;;;;15.36;64.44;100710.53;5051679;28;20533;-45
2023/04/14 10:55:47;;;;;;;7.03;1.85;;;;;;;13.73;67.21;100713.09;5051286;28;20076;-44
2023/04/14 10:58:20;;;;;;;7.95;1.65;;;;;;;13.93;69.18;100694.16;5051711;28;20025;-45
2023/04/14 11:00:46;;;;;;;6.28;1.90;;;;;;;14.60;68.05;100697.69;5051207;28;20025;-45
2023/04/14 11:03:15;;;;;;;11.82;2.00;;;;;;;15.28;66.16;100691.81;5051416;28;20429;-44
2023/04/14 11:05:50;;;;;;;4.82;1.45;;;;;;;15.19;65.40;100695.78;5050311;28;20086;-46
2023/04/14 11:08:16;;;;;;;5.63;1.75;;;;;;;14.19;67.13;100702.31;5050607;28;20417;-47
2023/04/14 11:10:47;;;;;;;8.43;1.90;;;;;;;13.93;68.08;100688.75;5051112;28;20021;-44
2023/04/14 11:13:13;;;;;;;4.25;1.63;;;;;;;13.39;69.08;100690.56;5050118;28;20052;-43
2023/04/14 11:15:49;;;;;;;6.03;1.88;;;;;;;14.00;68.79;100676.06;5051012;28;20477;-47
2023/04/14 11:18:33;;;;;;;4.82;1.50;;;;;;;15.73;66.14;100678.19;5051078;28;20025;-43